Aviation Digital Data Service (ADDS)

Output produced by METARs form (1039 UTC 24 July 2014)
found at http://aviationweather.gov/adds/metars/
 
KFRG 240953Z 35005KT 10SM CLR 22/19 A2981 RMK AO2 SLP094 T02170194
KISP 240956Z 34011KT 10SM FEW150 BKN250 22/19 A2979 RMK AO2 SLP085 FIRST AUGMENTED OBSERVATION T02220189
KISP 240840Z 2409/2506 34006KT P6SM SCT020 SCT150 BKN250 
     FM241400 35008KT P6SM FEW030 SCT150 BKN250 
     FM242300 34005KT P6SM SCT060 SCT250
       
KJFK 240951Z 34005KT 10SM BKN036 OVC250 23/19 A2982 RMK AO2 SLP098 T02330194
KJFK 241032Z 2411/2512 34009KT P6SM BKN035 
     FM241300 35011KT P6SM SCT040 SCT150 BKN250 
     TEMPO 2420/2423 18010KT 
     FM242300 34008KT P6SM SCT060 SCT250
       
KBDR 240952Z 31004KT 10SM FEW070 22/19 A2981 RMK AO2 SLP093 T02170189
KBDR 240840Z 2409/2506 34006KT P6SM FEW025 SCT080 BKN150 
     FM241300 36009KT P6SM FEW035 SCT150 BKN250 
     FM241900 18008KT P6SM SCT060 SCT250 
     FM242300 02005KT P6SM SCT060 SCT250